createdAt,value
2018-02-15T00:01:55.710Z,-1.93
2018-02-15T00:04:24.862Z,-1.98
2018-02-15T00:06:53.293Z,-2.03
2018-02-15T00:09:21.721Z,-2.05
2018-02-15T00:11:50.181Z,-2.10
2018-02-15T00:14:18.558Z,-2.10
2018-02-15T00:16:46.966Z,-2.15
2018-02-15T00:19:15.348Z,-2.15
2018-02-15T00:21:43.754Z,-2.18
2018-02-15T00:24:12.917Z,-2.13
2018-02-15T00:26:41.325Z,-2.16
2018-02-15T00:29:09.721Z,-2.13
2018-02-15T00:31:38.106Z,-2.10
2018-02-15T00:34:06.506Z,-2.11
2018-02-15T00:36:34.982Z,-2.15
2018-02-15T00:39:03.352Z,-2.16
2018-02-15T00:41:31.753Z,-2.17
2018-02-15T00:44:00.215Z,-2.15
2018-02-15T00:46:28.584Z,-2.11
2018-02-15T00:48:56.962Z,-2.07
2018-02-15T00:51:25.377Z,-2.06
2018-02-15T00:53:53.745Z,-2.01
2018-02-15T00:56:22.122Z,-2.01
2018-02-15T00:58:50.521Z,-2.05
2018-02-15T01:01:18.910Z,-2.03
2018-02-15T01:03:47.326Z,-2.07
2018-02-15T01:06:15.705Z,-2.12
2018-02-15T01:08:44.130Z,-2.15
2018-02-15T01:11:12.505Z,-2.15
2018-02-15T01:13:40.934Z,-2.17
2018-02-15T01:16:10.166Z,-2.22
2018-02-15T01:18:38.669Z,-2.21
2018-02-15T01:21:07.139Z,-2.13
2018-02-15T01:23:35.598Z,-2.19
2018-02-15T01:26:03.967Z,-2.17
2018-02-15T01:28:32.376Z,-2.19
2018-02-15T01:31:00.770Z,-2.21
2018-02-15T01:33:29.212Z,-2.25
2018-02-15T01:35:57.621Z,-2.24
2018-02-15T01:38:25.997Z,-2.24
2018-02-15T01:40:54.469Z,-2.26
2018-02-15T01:43:22.862Z,-2.27
2018-02-15T01:45:51.365Z,-2.28
2018-02-15T01:48:20.512Z,-2.30
2018-02-15T01:50:48.920Z,-2.32
2018-02-15T01:53:17.291Z,-2.33
2018-02-15T01:55:45.694Z,-2.34
2018-02-15T01:58:14.087Z,-2.38
2018-02-15T02:00:43.281Z,-2.39
2018-02-15T02:03:11.846Z,-2.43
2018-02-15T02:05:40.380Z,-2.42
2018-02-15T02:08:08.810Z,-2.47
2018-02-15T02:10:37.192Z,-2.50
2018-02-15T02:15:40.090Z,-2.50
2018-02-15T02:18:08.498Z,-2.48
2018-02-15T02:20:37.646Z,-2.48
2018-02-15T02:23:06.053Z,-2.48
2018-02-15T02:25:34.474Z,-2.50
2018-02-15T02:28:02.844Z,-2.52
2018-02-15T02:30:31.230Z,-2.50
2018-02-15T02:32:59.620Z,-2.52
2018-02-15T02:35:27.994Z,-2.52
2018-02-15T02:37:56.418Z,-2.52
2018-02-15T02:40:24.870Z,-2.53
2018-02-15T02:42:53.261Z,-2.49
2018-02-15T02:45:21.669Z,-2.46
2018-02-15T02:47:50.042Z,-2.39
2018-02-15T02:50:18.464Z,-2.39
2018-02-15T02:52:46.842Z,-2.40
2018-02-15T02:55:15.231Z,-2.45
2018-02-15T02:57:43.616Z,-2.40
2018-02-15T03:00:11.984Z,-2.37
2018-02-15T03:02:40.389Z,-2.35
2018-02-15T03:05:08.854Z,-2.35
2018-02-15T03:07:37.250Z,-2.33
2018-02-15T03:10:05.694Z,-2.31
2018-02-15T03:12:34.070Z,-2.31
2018-02-15T03:15:04.193Z,-2.28
2018-02-15T03:17:32.598Z,-2.28
2018-02-15T03:20:01.161Z,-2.28
2018-02-15T03:22:29.561Z,-2.30
2018-02-15T03:24:57.938Z,-2.31
2018-02-15T03:27:26.343Z,-2.29
2018-02-15T03:29:54.732Z,-2.24
2018-02-15T03:32:23.126Z,-2.23
2018-02-15T03:34:52.294Z,-2.23
2018-02-15T03:37:20.723Z,-2.25
2018-02-15T03:39:49.114Z,-2.22
2018-02-15T03:42:17.582Z,-2.24
2018-02-15T03:44:45.944Z,-2.22
2018-02-15T03:47:15.195Z,-2.22
2018-02-15T03:49:43.587Z,-2.22
2018-02-15T03:52:12.035Z,-2.24
2018-02-15T03:54:40.444Z,-2.25
2018-02-15T03:57:08.853Z,-2.25
2018-02-15T03:59:37.998Z,-2.27
2018-02-15T04:02:06.383Z,-2.22
2018-02-15T04:04:34.857Z,-2.21
2018-02-15T04:07:03.289Z,-2.26
2018-02-15T04:09:32.440Z,-2.24
2018-02-15T04:12:00.920Z,-2.13
2018-02-15T04:14:29.400Z,-2.12
2018-02-15T04:16:57.833Z,-2.11
2018-02-15T04:19:26.241Z,-2.10
2018-02-15T04:21:54.758Z,-2.13
2018-02-15T04:24:23.138Z,-2.13
2018-02-15T04:26:51.566Z,-2.09
2018-02-15T04:29:19.940Z,-2.06
2018-02-15T04:31:48.321Z,-2.01
2018-02-15T04:34:16.729Z,-1.97
2018-02-15T04:36:45.187Z,-1.95
2018-02-15T04:39:13.562Z,-1.95
2018-02-15T04:41:41.966Z,-1.94
2018-02-15T04:44:10.348Z,-1.92
2018-02-15T04:46:38.749Z,-1.93
2018-02-15T04:49:07.128Z,-1.93
2018-02-15T04:51:35.683Z,-1.91
2018-02-15T04:54:04.084Z,-1.99
2018-02-15T04:56:32.463Z,-1.93
2018-02-15T04:59:00.871Z,-1.89
2018-02-15T05:01:30.046Z,-1.91
2018-02-15T05:03:58.498Z,-1.90
2018-02-15T05:06:26.904Z,-1.92
2018-02-15T05:08:55.277Z,-1.99
2018-02-15T05:11:23.673Z,-1.94
2018-02-15T05:13:52.918Z,-1.92
2018-02-15T05:16:21.311Z,-1.92
2018-02-15T05:18:49.705Z,-1.92
2018-02-15T05:21:18.173Z,-1.91
2018-02-15T05:23:46.547Z,-1.85
2018-02-15T05:26:14.932Z,-1.85
2018-02-15T05:28:43.341Z,-1.86
2018-02-15T05:31:12.558Z,-1.86
2018-02-15T05:33:40.966Z,-1.85
2018-02-15T05:36:09.351Z,-1.82
2018-02-15T05:38:38.002Z,-1.81
2018-02-15T05:41:07.258Z,-1.80
2018-02-15T05:43:35.724Z,-1.77
2018-02-15T05:46:04.196Z,-1.81
2018-02-15T05:48:32.627Z,-1.80
2018-02-15T05:51:01.818Z,-1.73
2018-02-15T05:53:30.374Z,-1.67
2018-02-15T05:55:58.764Z,-1.61
2018-02-15T05:58:27.208Z,-1.57
2018-02-15T06:00:55.821Z,-1.62
2018-02-15T06:03:24.216Z,-1.57
2018-02-15T06:05:52.622Z,-1.52
2018-02-15T06:08:21.078Z,-1.48
2018-02-15T06:10:49.491Z,-1.37
2018-02-15T06:13:17.896Z,-1.38
2018-02-15T06:15:46.360Z,-1.50
2018-02-15T06:18:14.768Z,-1.58
2018-02-15T06:20:43.194Z,-1.43
2018-02-15T06:23:12.421Z,-1.40
2018-02-15T06:25:40.827Z,-1.35
2018-02-15T06:28:09.346Z,-1.44
2018-02-15T06:30:38.573Z,-1.60
2018-02-15T06:33:06.982Z,-1.81
2018-02-15T06:35:35.407Z,-1.87
2018-02-15T06:38:04.606Z,-1.87
2018-02-15T06:40:33.792Z,-1.94
2018-02-15T06:43:02.237Z,-1.94
2018-02-15T06:45:31.435Z,-1.92
2018-02-15T06:47:59.918Z,-1.91
2018-02-15T06:50:28.330Z,-1.82
2018-02-15T06:52:56.745Z,-1.78
2018-02-15T06:55:25.170Z,-1.80
2018-02-15T06:57:53.582Z,-1.80
2018-02-15T07:00:22.032Z,-1.73
2018-02-15T07:02:50.440Z,-1.74
2018-02-15T07:05:18.869Z,-1.72
2018-02-15T07:07:47.337Z,-1.74
2018-02-15T07:10:15.786Z,-1.73
2018-02-15T07:12:45.021Z,-1.09
2018-02-15T07:15:13.462Z,-1.52
2018-02-15T07:17:41.889Z,-1.47
2018-02-15T07:20:10.322Z,-1.51
2018-02-15T07:22:38.753Z,-1.50
2018-02-15T07:25:07.186Z,-1.28
2018-02-15T07:27:36.375Z,-1.19
2018-02-15T07:30:04.808Z,-1.19
2018-02-15T07:32:33.237Z,-1.17
2018-02-15T07:35:01.683Z,-1.11
2018-02-15T07:37:30.117Z,-0.95
2018-02-15T07:39:58.528Z,-0.80
2018-02-15T07:42:26.939Z,-0.76
2018-02-15T07:44:56.162Z,-0.71
2018-02-15T07:47:24.598Z,-0.67
2018-02-15T07:49:53.010Z,-0.54
2018-02-15T07:52:21.453Z,-0.47
2018-02-15T07:54:49.873Z,-0.64
2018-02-15T07:57:18.311Z,-0.52
2018-02-15T07:59:46.740Z,-0.36
2018-02-15T08:02:15.147Z,-0.42
2018-02-15T08:04:43.590Z,-0.29
2018-02-15T08:07:12.028Z,-0.35
2018-02-15T08:09:40.476Z,-0.45
2018-02-15T08:12:08.890Z,-0.21
2018-02-15T08:14:37.308Z,-0.50
2018-02-15T08:17:05.732Z,-0.25
2018-02-15T08:19:34.176Z,-0.26
2018-02-15T08:22:02.580Z,-0.37
2018-02-15T08:24:30.987Z,-0.12
2018-02-15T08:26:59.425Z,-0.25
2018-02-15T08:29:27.837Z,0.02
2018-02-15T08:31:57.021Z,0.10
2018-02-15T08:34:25.454Z,0.25
2018-02-15T08:36:54.669Z,0.09
2018-02-15T08:39:23.075Z,0.22
2018-02-15T08:41:51.525Z,0.25
2018-02-15T08:44:19.992Z,0.44
2018-02-15T08:46:48.382Z,0.37
2018-02-15T08:49:16.916Z,0.50
2018-02-15T08:51:45.335Z,0.55
2018-02-15T08:54:13.778Z,0.64
2018-02-15T08:56:42.207Z,0.54
2018-02-15T08:59:10.602Z,0.67
2018-02-15T09:01:39.019Z,0.73
2018-02-15T09:04:07.443Z,0.88
2018-02-15T09:06:35.843Z,0.82
2018-02-15T09:09:04.264Z,1.12
2018-02-15T09:11:32.669Z,0.91
2018-02-15T09:14:01.878Z,1.07
2018-02-15T09:16:30.274Z,1.30
2018-02-15T09:18:58.679Z,1.33
2018-02-15T09:21:27.239Z,1.67
2018-02-15T09:23:55.637Z,1.82
2018-02-15T09:26:24.072Z,2.17
2018-02-15T09:28:52.528Z,2.87
2018-02-15T09:31:20.927Z,3.19
2018-02-15T09:33:49.368Z,3.40
2018-02-15T09:36:17.798Z,3.85
2018-02-15T09:38:46.198Z,3.65
2018-02-15T09:41:14.619Z,4.66
2018-02-15T09:43:43.053Z,5.00
2018-02-15T09:46:11.471Z,5.21
2018-02-15T09:48:39.920Z,4.56
2018-02-15T09:51:08.310Z,4.95
2018-02-15T09:53:36.724Z,5.15
2018-02-15T09:56:05.929Z,3.76
2018-02-15T09:58:35.103Z,3.38
2018-02-15T10:01:03.520Z,3.11
2018-02-15T10:03:31.931Z,2.73
2018-02-15T10:06:00.344Z,2.93
2018-02-15T10:08:28.797Z,2.76
2018-02-15T10:10:57.206Z,2.38
2018-02-15T10:13:25.604Z,2.58
2018-02-15T10:15:54.803Z,2.63
2018-02-15T10:18:23.978Z,2.43
2018-02-15T10:20:52.397Z,2.49
2018-02-15T10:23:20.815Z,2.62
2018-02-15T10:25:49.234Z,2.51
2018-02-15T10:28:18.422Z,2.40
2018-02-15T10:30:46.830Z,2.75
2018-02-15T10:33:15.253Z,2.80
2018-02-15T10:35:43.673Z,2.72
2018-02-15T10:38:12.885Z,3.03
2018-02-15T10:40:41.308Z,3.13
2018-02-15T10:43:09.711Z,2.90
2018-02-15T10:45:38.144Z,2.84
2018-02-15T10:48:06.570Z,2.72
2018-02-15T10:50:35.018Z,2.86
2018-02-15T10:53:03.438Z,3.19
2018-02-15T10:55:32.654Z,2.98
2018-02-15T10:58:01.094Z,2.95
2018-02-15T11:00:34.923Z,3.05
2018-02-15T11:03:09.386Z,3.23
2018-02-15T11:05:40.123Z,3.59
2018-02-15T11:08:08.576Z,3.73
2018-02-15T11:10:37.011Z,3.92
2018-02-15T11:13:05.419Z,3.94
2018-02-15T11:15:34.605Z,3.90
2018-02-15T11:18:03.033Z,3.76
2018-02-15T11:20:31.433Z,3.66
2018-02-15T11:22:59.862Z,3.84
2018-02-15T11:25:29.039Z,4.05
2018-02-15T11:27:57.483Z,3.99
2018-02-15T11:30:25.911Z,3.82
2018-02-15T11:32:55.092Z,3.70
2018-02-15T11:35:23.557Z,3.54
2018-02-15T11:37:52.020Z,3.63
2018-02-15T11:40:20.417Z,3.53
2018-02-15T11:42:48.844Z,3.57
2018-02-15T11:45:17.316Z,3.54
2018-02-15T11:47:45.729Z,3.31
2018-02-15T11:50:14.174Z,3.18
2018-02-15T11:52:42.611Z,3.18
2018-02-15T11:55:11.011Z,3.03
2018-02-15T11:57:39.446Z,3.04
2018-02-15T12:00:07.847Z,2.96
2018-02-15T12:02:36.289Z,2.99
2018-02-15T12:05:04.686Z,2.92
2018-02-15T12:07:33.084Z,2.87
2018-02-15T12:10:01.523Z,2.75
2018-02-15T12:12:29.920Z,2.77
2018-02-15T12:14:58.338Z,2.86
2018-02-15T12:17:26.782Z,2.79
2018-02-15T12:19:55.198Z,2.83
2018-02-15T12:22:23.597Z,2.81
2018-02-15T12:24:52.800Z,2.93
2018-02-15T12:27:22.024Z,2.84
2018-02-15T12:29:50.451Z,2.89
2018-02-15T12:32:18.852Z,3.00
2018-02-15T12:34:48.028Z,3.00
2018-02-15T12:37:16.470Z,2.89
2018-02-15T12:39:44.865Z,2.93
2018-02-15T12:42:13.272Z,2.97
2018-02-15T12:44:41.711Z,3.08
2018-02-15T12:47:10.114Z,2.94
2018-02-15T12:49:38.542Z,2.94
2018-02-15T12:52:06.986Z,2.91
2018-02-15T12:54:35.383Z,2.95
2018-02-15T12:57:04.582Z,3.00
2018-02-15T12:59:33.745Z,3.07
2018-02-15T13:02:02.162Z,3.05
2018-02-15T13:04:31.350Z,3.12
2018-02-15T13:07:00.560Z,3.07
2018-02-15T13:09:29.722Z,3.03
2018-02-15T13:11:58.162Z,3.04
2018-02-15T13:14:26.573Z,3.19
2018-02-15T13:16:57.785Z,3.16
2018-02-15T13:19:43.883Z,3.19
2018-02-15T13:22:29.892Z,3.11
2018-02-15T13:24:58.306Z,3.08
2018-02-15T13:30:37.472Z,3.09
2018-02-15T13:33:06.876Z,3.03
2018-02-15T13:35:35.316Z,2.93
2018-02-15T13:38:03.730Z,2.89
2018-02-15T13:40:32.921Z,2.78
2018-02-15T13:43:02.113Z,2.72
2018-02-15T13:45:30.559Z,2.66
2018-02-15T13:47:58.985Z,2.55
2018-02-15T13:50:27.670Z,2.58
2018-02-15T13:52:56.906Z,2.68
2018-02-15T13:55:25.303Z,2.84
2018-02-15T13:57:53.722Z,2.69
2018-02-15T14:00:22.931Z,2.84
2018-02-15T14:02:52.109Z,2.97
2018-02-15T14:05:20.520Z,2.94
2018-02-15T14:07:48.948Z,2.86
2018-02-15T14:10:17.350Z,2.96
2018-02-15T14:12:45.775Z,3.09
2018-02-15T14:15:14.171Z,2.93
2018-02-15T14:17:42.712Z,2.91
2018-02-15T14:20:12.023Z,2.87
2018-02-15T14:22:40.486Z,2.92
2018-02-15T14:25:08.980Z,2.84
2018-02-15T14:27:37.378Z,2.73
2018-02-15T14:30:05.802Z,2.70
2018-02-15T14:32:34.264Z,2.67
2018-02-15T14:35:03.433Z,2.78
2018-02-15T14:37:31.865Z,2.58
2018-02-15T14:40:00.256Z,2.54
2018-02-15T14:42:29.442Z,2.49
2018-02-15T14:44:58.669Z,2.60
2018-02-15T14:47:27.126Z,2.47
2018-02-15T14:49:56.311Z,2.38
2018-02-15T14:52:24.746Z,2.08
2018-02-15T14:54:53.173Z,1.81
2018-02-15T14:57:21.604Z,1.69
2018-02-15T14:59:50.049Z,1.53
2018-02-15T15:02:19.218Z,1.51
2018-02-15T15:04:47.686Z,1.47
2018-02-15T15:07:16.113Z,1.55
2018-02-15T15:09:44.585Z,1.32
2018-02-15T15:12:13.098Z,1.17
2018-02-15T15:14:41.511Z,1.23
2018-02-15T15:17:09.960Z,1.22
2018-02-15T15:19:38.365Z,1.14
2018-02-15T15:22:07.306Z,1.10
2018-02-15T15:24:36.553Z,1.22
2018-02-15T15:27:04.950Z,1.21
2018-02-15T15:29:33.389Z,1.24
2018-02-15T15:32:01.810Z,1.24
2018-02-15T15:34:30.414Z,1.32
2018-02-15T15:36:59.563Z,1.22
2018-02-15T15:39:27.974Z,1.24
2018-02-15T15:41:56.365Z,1.26
2018-02-15T15:44:25.584Z,1.22
2018-02-15T15:46:59.028Z,1.18
2018-02-15T15:49:27.498Z,1.15
2018-02-15T15:51:56.026Z,1.12
2018-02-15T15:54:25.224Z,1.03
2018-02-15T15:56:54.420Z,1.06
2018-02-15T15:59:23.595Z,1.07
2018-02-15T16:01:52.009Z,1.04
2018-02-15T16:04:20.411Z,1.01
2018-02-15T16:06:48.850Z,1.02
2018-02-15T16:09:18.065Z,1.00
2018-02-15T16:11:47.234Z,0.98
2018-02-15T16:14:15.680Z,0.98
2018-02-15T16:16:44.076Z,0.87
2018-02-15T16:19:12.583Z,0.94
2018-02-15T16:21:41.763Z,0.98
2018-02-15T16:24:10.160Z,0.95
2018-02-15T16:26:38.581Z,0.94
2018-02-15T16:29:07.093Z,0.94
2018-02-15T16:31:35.504Z,0.87
2018-02-15T16:34:03.940Z,0.89
2018-02-15T16:36:32.354Z,0.92
2018-02-15T16:39:00.793Z,0.95
2018-02-15T16:41:29.239Z,0.99
2018-02-15T16:43:57.633Z,1.14
2018-02-15T16:46:26.298Z,1.08
2018-02-15T16:48:55.518Z,1.03
2018-02-15T16:51:23.931Z,0.98
2018-02-15T16:53:52.354Z,1.02
2018-02-15T16:56:20.774Z,1.01
2018-02-15T16:58:49.398Z,1.03
2018-02-15T17:01:18.573Z,1.07
2018-02-15T17:03:46.986Z,0.99
2018-02-15T17:06:15.398Z,0.97
2018-02-15T17:08:43.813Z,0.95
2018-02-15T17:11:12.244Z,1.00
2018-02-15T17:13:40.682Z,1.02
2018-02-15T17:16:09.068Z,1.07
2018-02-15T17:18:38.285Z,1.05
2018-02-15T17:21:06.710Z,1.01
2018-02-15T17:23:35.153Z,1.09
2018-02-15T17:26:03.568Z,1.07
2018-02-15T17:28:31.994Z,1.11
2018-02-15T17:31:01.162Z,1.10
2018-02-15T17:33:29.606Z,1.15
2018-02-15T17:35:58.018Z,1.11
2018-02-15T17:38:26.459Z,1.12
2018-02-15T17:40:54.889Z,1.15
2018-02-15T17:43:23.322Z,1.21
2018-02-15T17:45:51.767Z,1.19
2018-02-15T17:48:20.186Z,1.26
2018-02-15T17:50:48.596Z,1.20
2018-02-15T17:53:17.021Z,1.15
2018-02-15T17:55:46.211Z,1.21
2018-02-15T17:58:14.634Z,1.22
2018-02-15T18:00:43.064Z,1.21
2018-02-15T18:03:11.532Z,1.11
2018-02-15T18:05:40.059Z,1.20
2018-02-15T18:08:08.500Z,1.26
2018-02-15T18:10:36.904Z,1.18
2018-02-15T18:13:05.322Z,1.23
2018-02-15T18:15:33.747Z,1.30
2018-02-15T18:18:02.176Z,1.36
2018-02-15T18:20:30.619Z,1.30
2018-02-15T18:22:59.041Z,1.34
2018-02-15T18:25:27.477Z,1.39
2018-02-15T18:27:55.913Z,1.36
2018-02-15T18:30:24.348Z,1.41
2018-02-15T18:32:52.814Z,1.39
2018-02-15T18:35:21.231Z,1.29
2018-02-15T18:37:49.806Z,1.36
2018-02-15T18:40:18.267Z,1.38
2018-02-15T18:42:46.703Z,1.35
2018-02-15T18:45:15.129Z,1.34
2018-02-15T18:47:43.561Z,1.37
2018-02-15T18:50:12.022Z,1.42
2018-02-15T18:52:40.414Z,1.44
2018-02-15T18:55:08.818Z,1.42
2018-02-15T18:57:37.250Z,1.46
2018-02-15T19:00:05.666Z,1.48
2018-02-15T19:02:34.063Z,1.46
2018-02-15T19:05:02.511Z,1.55
2018-02-15T19:07:30.906Z,1.56
2018-02-15T19:09:59.346Z,1.53
2018-02-15T19:12:27.747Z,1.54
2018-02-15T19:14:56.149Z,1.60
2018-02-15T19:17:24.594Z,1.64
2018-02-15T19:19:52.998Z,1.55
2018-02-15T19:22:21.391Z,1.61
2018-02-15T19:24:49.842Z,1.63
2018-02-15T19:27:18.248Z,1.70
2018-02-15T19:29:46.688Z,1.77
2018-02-15T19:32:15.086Z,1.87
2018-02-15T19:34:43.486Z,1.94
2018-02-15T19:37:11.925Z,1.97
2018-02-15T19:39:40.326Z,2.07
2018-02-15T19:42:08.725Z,2.12
2018-02-15T19:44:37.140Z,2.11
2018-02-15T19:47:05.573Z,2.20
2018-02-15T19:49:33.972Z,2.16
2018-02-15T19:52:02.377Z,2.11
2018-02-15T19:54:30.813Z,2.17
2018-02-15T19:56:59.993Z,2.20
2018-02-15T19:59:28.404Z,2.15
2018-02-15T20:01:56.858Z,2.11
2018-02-15T20:04:25.256Z,2.28
2018-02-15T20:06:53.674Z,2.25
2018-02-15T20:09:22.105Z,2.33
2018-02-15T20:11:51.286Z,2.27
2018-02-15T20:14:19.674Z,2.23
2018-02-15T20:16:48.139Z,2.30
2018-02-15T20:19:17.302Z,2.33
2018-02-15T20:21:45.718Z,2.40
2018-02-15T20:24:14.113Z,2.34
2018-02-15T20:26:48.067Z,2.32
2018-02-15T20:29:16.477Z,2.27
2018-02-15T20:31:44.870Z,2.37
2018-02-15T20:34:13.292Z,2.38
2018-02-15T20:36:41.705Z,2.37
2018-02-15T20:39:15.685Z,2.43
2018-02-15T20:41:44.081Z,2.37
2018-02-15T20:44:12.506Z,2.28
2018-02-15T20:46:40.934Z,2.36
2018-02-15T20:49:14.859Z,2.47
2018-02-15T20:51:48.690Z,2.42
2018-02-15T20:54:22.627Z,2.53
2018-02-15T20:56:51.828Z,2.50
2018-02-15T20:59:20.237Z,2.53
2018-02-15T21:01:48.662Z,2.67
2018-02-15T21:04:17.066Z,2.65
2018-02-15T21:06:45.470Z,2.66
2018-02-15T21:09:13.879Z,2.55
2018-02-15T21:11:42.286Z,2.62
2018-02-15T21:14:10.720Z,2.65
2018-02-15T21:16:39.114Z,2.75
2018-02-15T21:19:07.525Z,2.69
2018-02-15T21:21:35.943Z,2.73
2018-02-15T21:24:04.381Z,2.84
2018-02-15T21:26:32.793Z,2.74
2018-02-15T21:29:01.258Z,2.85
2018-02-15T21:31:29.660Z,2.73
2018-02-15T21:33:58.096Z,2.63
2018-02-15T21:36:26.525Z,2.80
2018-02-15T21:38:54.921Z,2.80
2018-02-15T21:41:23.354Z,2.85
2018-02-15T21:43:51.790Z,2.76
2018-02-15T21:46:20.215Z,2.71
2018-02-15T21:48:49.453Z,2.81
2018-02-15T21:51:17.882Z,2.86
2018-02-15T21:53:47.054Z,2.93
2018-02-15T21:56:15.517Z,2.91
2018-02-15T21:58:43.933Z,2.77
2018-02-15T22:01:12.359Z,2.83
2018-02-15T22:03:40.784Z,2.79
2018-02-15T22:06:09.285Z,2.81
2018-02-15T22:08:38.478Z,2.82
2018-02-15T22:11:07.663Z,2.77
2018-02-15T22:13:36.101Z,2.72
2018-02-15T22:16:04.518Z,2.69
2018-02-15T22:18:32.948Z,2.69
2018-02-15T22:21:01.338Z,2.68
2018-02-15T22:23:29.748Z,2.69
2018-02-15T22:25:58.114Z,2.73
2018-02-15T22:28:26.502Z,2.74
2018-02-15T22:30:54.874Z,2.68
2018-02-15T22:33:23.281Z,2.68
2018-02-15T22:35:52.422Z,2.70
2018-02-15T22:38:20.839Z,2.70
2018-02-15T22:40:49.274Z,2.74
2018-02-15T22:43:17.638Z,2.87
2018-02-15T22:45:46.146Z,2.97
2018-02-15T22:48:14.506Z,2.87
2018-02-15T22:50:43.000Z,2.84
2018-02-15T22:53:11.366Z,2.73
2018-02-15T22:55:39.860Z,2.71
2018-02-15T22:58:08.255Z,2.72
2018-02-15T23:00:36.621Z,2.72
2018-02-15T23:03:05.026Z,2.82
2018-02-15T23:05:33.422Z,2.87
2018-02-15T23:08:01.841Z,2.87
2018-02-15T23:10:30.690Z,2.85
2018-02-15T23:12:59.859Z,2.80
2018-02-15T23:15:28.253Z,2.74
2018-02-15T23:17:56.873Z,2.75
2018-02-15T23:20:26.006Z,2.75
2018-02-15T23:22:54.405Z,2.80
2018-02-15T23:25:22.925Z,2.79
2018-02-15T23:27:52.130Z,2.84
2018-02-15T23:30:20.542Z,2.90
2018-02-15T23:32:48.933Z,3.01
2018-02-15T23:35:17.437Z,3.17
2018-02-15T23:37:46.117Z,3.22
2018-02-15T23:40:14.545Z,3.28
2018-02-15T23:42:44.683Z,3.33
2018-02-15T23:45:13.089Z,3.37
2018-02-15T23:47:41.497Z,3.39
2018-02-15T23:50:10.655Z,3.44
2018-02-15T23:52:39.068Z,3.39
2018-02-15T23:55:07.499Z,3.36
2018-02-15T23:57:36.150Z,3.38
